sensor_id;sensor_type;location;lat;lon;timestamp;P1;durP1;ratioP1;P2;durP2;ratioP2
39264;SDS011;42646;51.910;7.724;2023-09-19T00:01:02;5.32;;;2.10;;
39264;SDS011;42646;51.910;7.724;2023-09-19T00:03:31;6.05;;;2.10;;
39264;SDS011;42646;51.910;7.724;2023-09-19T00:06:00;4.68;;;2.17;;
39264;SDS011;42646;51.910;7.724;2023-09-19T00:08:28;4.40;;;2.10;;
39264;SDS011;42646;51.910;7.724;2023-09-19T00:10:56;5.82;;;2.40;;
39264;SDS011;42646;51.910;7.724;2023-09-19T00:13:30;5.45;;;2.20;;
39264;SDS011;42646;51.910;7.724;2023-09-19T00:15:59;7.20;;;2.30;;
39264;SDS011;42646;51.910;7.724;2023-09-19T00:18:27;4.93;;;2.28;;
39264;SDS011;42646;51.910;7.724;2023-09-19T00:20:57;5.38;;;2.20;;
39264;SDS011;42646;51.910;7.724;2023-09-19T00:23:27;4.90;;;2.10;;
39264;SDS011;42646;51.910;7.724;2023-09-19T00:25:54;7.63;;;2.30;;
39264;SDS011;42646;51.910;7.724;2023-09-19T00:28:27;5.20;;;2.25;;
39264;SDS011;42646;51.910;7.724;2023-09-19T00:30:57;11.10;;;2.30;;
39264;SDS011;42646;51.910;7.724;2023-09-19T00:33:27;7.40;;;2.13;;
39264;SDS011;42646;51.910;7.724;2023-09-19T00:35:57;5.22;;;2.30;;
39264;SDS011;42646;51.910;7.724;2023-09-19T00:38:27;7.25;;;2.60;;
39264;SDS011;42646;51.910;7.724;2023-09-19T00:40:55;10.10;;;2.67;;
39264;SDS011;42646;51.910;7.724;2023-09-19T00:43:26;4.72;;;2.08;;
39264;SDS011;42646;51.910;7.724;2023-09-19T00:45:55;6.07;;;2.30;;
39264;SDS011;42646;51.910;7.724;2023-09-19T00:48:27;8.27;;;1.95;;
39264;SDS011;42646;51.910;7.724;2023-09-19T00:50:57;8.30;;;2.33;;
39264;SDS011;42646;51.910;7.724;2023-09-19T00:53:33;7.55;;;2.30;;
39264;SDS011;42646;51.910;7.724;2023-09-19T00:56:01;10.07;;;2.60;;
39264;SDS011;42646;51.910;7.724;2023-09-19T00:58:36;5.88;;;2.30;;
39264;SDS011;42646;51.910;7.724;2023-09-19T01:01:30;7.32;;;2.05;;
39264;SDS011;42646;51.910;7.724;2023-09-19T01:04:02;6.72;;;2.28;;
39264;SDS011;42646;51.910;7.724;2023-09-19T01:06:30;6.50;;;2.30;;
39264;SDS011;42646;51.910;7.724;2023-09-19T01:09:00;6.10;;;1.98;;
39264;SDS011;42646;51.910;7.724;2023-09-19T01:11:32;6.55;;;1.90;;
39264;SDS011;42646;51.910;7.724;2023-09-19T01:14:10;7.32;;;2.08;;
39264;SDS011;42646;51.910;7.724;2023-09-19T01:16:50;8.70;;;2.20;;
39264;SDS011;42646;51.910;7.724;2023-09-19T01:19:41;6.38;;;2.00;;
39264;SDS011;42646;51.910;7.724;2023-09-19T01:22:37;9.13;;;2.15;;
39264;SDS011;42646;51.910;7.724;2023-09-19T01:28:30;6.25;;;1.90;;
39264;SDS011;42646;51.910;7.724;2023-09-19T01:31:06;6.18;;;2.33;;
39264;SDS011;42646;51.910;7.724;2023-09-19T01:33:54;6.90;;;2.15;;
39264;SDS011;42646;51.910;7.724;2023-09-19T01:36:28;5.70;;;1.90;;
39264;SDS011;42646;51.910;7.724;2023-09-19T01:38:59;7.50;;;2.00;;
39264;SDS011;42646;51.910;7.724;2023-09-19T01:41:45;5.22;;;2.15;;
39264;SDS011;42646;51.910;7.724;2023-09-19T01:44:22;7.78;;;2.00;;
39264;SDS011;42646;51.910;7.724;2023-09-19T01:46:59;4.70;;;1.92;;
39264;SDS011;42646;51.910;7.724;2023-09-19T01:49:37;7.95;;;2.45;;
39264;SDS011;42646;51.910;7.724;2023-09-19T01:52:14;8.02;;;1.90;;
39264;SDS011;42646;51.910;7.724;2023-09-19T01:54:46;6.63;;;1.95;;
39264;SDS011;42646;51.910;7.724;2023-09-19T01:57:20;10.25;;;2.55;;
39264;SDS011;42646;51.910;7.724;2023-09-19T01:59:57;8.68;;;2.20;;
39264;SDS011;42646;51.910;7.724;2023-09-19T02:02:39;6.22;;;2.28;;
39264;SDS011;42646;51.910;7.724;2023-09-19T02:05:10;6.90;;;2.22;;
39264;SDS011;42646;51.910;7.724;2023-09-19T02:07:39;9.95;;;3.75;;
39264;SDS011;42646;51.910;7.724;2023-09-19T02:10:07;9.43;;;2.20;;
39264;SDS011;42646;51.910;7.724;2023-09-19T02:12:36;8.55;;;2.30;;
39264;SDS011;42646;51.910;7.724;2023-09-19T02:15:05;8.10;;;2.33;;
39264;SDS011;42646;51.910;7.724;2023-09-19T02:17:36;5.68;;;2.13;;
39264;SDS011;42646;51.910;7.724;2023-09-19T02:20:06;10.93;;;2.40;;
39264;SDS011;42646;51.910;7.724;2023-09-19T02:22:36;7.55;;;2.28;;
39264;SDS011;42646;51.910;7.724;2023-09-19T02:25:06;9.82;;;2.85;;
39264;SDS011;42646;51.910;7.724;2023-09-19T02:27:35;7.90;;;2.72;;
39264;SDS011;42646;51.910;7.724;2023-09-19T02:30:04;8.95;;;2.50;;
39264;SDS011;42646;51.910;7.724;2023-09-19T02:32:33;8.68;;;2.30;;
39264;SDS011;42646;51.910;7.724;2023-09-19T02:35:07;6.95;;;2.63;;
39264;SDS011;42646;51.910;7.724;2023-09-19T02:37:37;7.47;;;2.10;;
39264;SDS011;42646;51.910;7.724;2023-09-19T02:40:07;6.03;;;2.20;;
39264;SDS011;42646;51.910;7.724;2023-09-19T02:42:46;5.40;;;1.98;;
39264;SDS011;42646;51.910;7.724;2023-09-19T02:45:16;5.25;;;2.00;;
39264;SDS011;42646;51.910;7.724;2023-09-19T02:47:46;7.93;;;2.10;;
39264;SDS011;42646;51.910;7.724;2023-09-19T02:50:17;7.40;;;1.98;;
39264;SDS011;42646;51.910;7.724;2023-09-19T02:52:47;6.90;;;2.03;;
39264;SDS011;42646;51.910;7.724;2023-09-19T02:55:16;7.40;;;2.17;;
39264;SDS011;42646;51.910;7.724;2023-09-19T02:57:46;8.35;;;2.20;;
39264;SDS011;42646;51.910;7.724;2023-09-19T03:00:14;7.60;;;2.25;;
39264;SDS011;42646;51.910;7.724;2023-09-19T03:02:42;7.50;;;2.00;;
39264;SDS011;42646;51.910;7.724;2023-09-19T03:05:14;9.75;;;2.20;;
39264;SDS011;42646;51.910;7.724;2023-09-19T03:07:44;6.30;;;1.92;;
39264;SDS011;42646;51.910;7.724;2023-09-19T03:10:14;8.57;;;2.40;;
39264;SDS011;42646;51.910;7.724;2023-09-19T03:12:43;5.82;;;1.90;;
39264;SDS011;42646;51.910;7.724;2023-09-19T03:15:12;7.65;;;2.42;;
39264;SDS011;42646;51.910;7.724;2023-09-19T03:17:43;8.15;;;2.20;;
39264;SDS011;42646;51.910;7.724;2023-09-19T03:20:12;7.22;;;2.10;;
39264;SDS011;42646;51.910;7.724;2023-09-19T03:22:45;7.53;;;2.20;;
39264;SDS011;42646;51.910;7.724;2023-09-19T03:25:13;9.35;;;2.47;;
39264;SDS011;42646;51.910;7.724;2023-09-19T03:27:46;8.98;;;2.20;;
39264;SDS011;42646;51.910;7.724;2023-09-19T03:30:15;6.18;;;2.00;;
39264;SDS011;42646;51.910;7.724;2023-09-19T03:32:46;6.90;;;1.90;;
39264;SDS011;42646;51.910;7.724;2023-09-19T03:35:16;8.00;;;2.10;;
39264;SDS011;42646;51.910;7.724;2023-09-19T03:37:48;5.70;;;1.88;;
39264;SDS011;42646;51.910;7.724;2023-09-19T03:40:16;4.40;;;1.83;;
39264;SDS011;42646;51.910;7.724;2023-09-19T03:42:46;8.40;;;2.25;;
39264;SDS011;42646;51.910;7.724;2023-09-19T03:45:15;6.38;;;2.17;;
39264;SDS011;42646;51.910;7.724;2023-09-19T03:47:48;7.32;;;2.08;;
39264;SDS011;42646;51.910;7.724;2023-09-19T03:50:20;8.68;;;2.00;;
39264;SDS011;42646;51.910;7.724;2023-09-19T03:52:50;6.40;;;1.83;;
39264;SDS011;42646;51.910;7.724;2023-09-19T03:55:18;7.65;;;1.90;;
39264;SDS011;42646;51.910;7.724;2023-09-19T03:57:47;6.53;;;2.03;;
39264;SDS011;42646;51.910;7.724;2023-09-19T04:00:16;6.05;;;1.80;;
39264;SDS011;42646;51.910;7.724;2023-09-19T04:02:48;7.32;;;1.95;;
39264;SDS011;42646;51.910;7.724;2023-09-19T04:05:17;7.57;;;2.05;;
39264;SDS011;42646;51.910;7.724;2023-09-19T04:07:45;4.97;;;1.80;;
39264;SDS011;42646;51.910;7.724;2023-09-19T04:10:19;7.72;;;1.92;;
39264;SDS011;42646;51.910;7.724;2023-09-19T04:12:50;7.00;;;2.22;;
39264;SDS011;42646;51.910;7.724;2023-09-19T04:15:47;9.10;;;2.03;;
39264;SDS011;42646;51.910;7.724;2023-09-19T04:18:17;6.30;;;1.90;;
39264;SDS011;42646;51.910;7.724;2023-09-19T04:20:48;7.63;;;2.15;;
39264;SDS011;42646;51.910;7.724;2023-09-19T04:23:16;10.70;;;2.15;;
39264;SDS011;42646;51.910;7.724;2023-09-19T04:25:47;6.57;;;2.03;;
39264;SDS011;42646;51.910;7.724;2023-09-19T04:28:15;7.80;;;2.10;;
39264;SDS011;42646;51.910;7.724;2023-09-19T04:30:43;7.75;;;2.25;;
39264;SDS011;42646;51.910;7.724;2023-09-19T04:33:11;6.47;;;1.92;;
39264;SDS011;42646;51.910;7.724;2023-09-19T04:35:42;7.00;;;1.90;;
39264;SDS011;42646;51.910;7.724;2023-09-19T04:38:12;5.15;;;2.17;;
39264;SDS011;42646;51.910;7.724;2023-09-19T04:40:41;9.15;;;2.10;;
39264;SDS011;42646;51.910;7.724;2023-09-19T04:43:10;7.28;;;1.95;;
39264;SDS011;42646;51.910;7.724;2023-09-19T04:45:38;6.35;;;1.80;;
39264;SDS011;42646;51.910;7.724;2023-09-19T04:48:10;7.05;;;2.00;;
39264;SDS011;42646;51.910;7.724;2023-09-19T04:50:41;9.38;;;2.08;;
39264;SDS011;42646;51.910;7.724;2023-09-19T04:53:10;6.72;;;2.05;;
39264;SDS011;42646;51.910;7.724;2023-09-19T04:55:37;8.90;;;2.22;;
39264;SDS011;42646;51.910;7.724;2023-09-19T04:58:05;5.88;;;2.35;;
39264;SDS011;42646;51.910;7.724;2023-09-19T05:00:34;8.40;;;2.30;;
39264;SDS011;42646;51.910;7.724;2023-09-19T05:03:03;5.75;;;1.90;;
39264;SDS011;42646;51.910;7.724;2023-09-19T05:05:32;4.88;;;1.95;;
39264;SDS011;42646;51.910;7.724;2023-09-19T05:08:04;6.25;;;2.05;;
39264;SDS011;42646;51.910;7.724;2023-09-19T05:13:29;5.65;;;1.85;;
39264;SDS011;42646;51.910;7.724;2023-09-19T05:16:01;10.02;;;2.00;;
39264;SDS011;42646;51.910;7.724;2023-09-19T05:18:54;5.35;;;1.88;;
39264;SDS011;42646;51.910;7.724;2023-09-19T05:21:22;7.30;;;2.10;;
39264;SDS011;42646;51.910;7.724;2023-09-19T05:23:51;9.73;;;2.25;;
39264;SDS011;42646;51.910;7.724;2023-09-19T05:26:19;5.85;;;2.08;;
39264;SDS011;42646;51.910;7.724;2023-09-19T05:28:47;9.80;;;1.95;;
39264;SDS011;42646;51.910;7.724;2023-09-19T05:31:16;6.88;;;2.10;;
39264;SDS011;42646;51.910;7.724;2023-09-19T05:33:44;5.28;;;2.08;;
39264;SDS011;42646;51.910;7.724;2023-09-19T05:36:13;6.30;;;2.08;;
39264;SDS011;42646;51.910;7.724;2023-09-19T05:39:08;5.85;;;1.88;;
39264;SDS011;42646;51.910;7.724;2023-09-19T05:41:36;5.38;;;2.10;;
39264;SDS011;42646;51.910;7.724;2023-09-19T05:44:06;6.03;;;2.30;;
39264;SDS011;42646;51.910;7.724;2023-09-19T05:46:35;6.15;;;1.80;;
39264;SDS011;42646;51.910;7.724;2023-09-19T05:49:03;7.45;;;2.50;;
39264;SDS011;42646;51.910;7.724;2023-09-19T05:51:31;8.10;;;2.10;;
39264;SDS011;42646;51.910;7.724;2023-09-19T05:54:23;7.47;;;2.17;;
39264;SDS011;42646;51.910;7.724;2023-09-19T05:56:51;7.18;;;2.08;;
39264;SDS011;42646;51.910;7.724;2023-09-19T05:59:19;7.32;;;2.17;;
39264;SDS011;42646;51.910;7.724;2023-09-19T06:01:48;6.60;;;2.40;;
39264;SDS011;42646;51.910;7.724;2023-09-19T06:04:17;6.50;;;2.17;;
39264;SDS011;42646;51.910;7.724;2023-09-19T06:06:46;5.45;;;1.90;;
39264;SDS011;42646;51.910;7.724;2023-09-19T06:09:16;7.93;;;2.60;;
39264;SDS011;42646;51.910;7.724;2023-09-19T06:11:49;8.43;;;2.22;;
39264;SDS011;42646;51.910;7.724;2023-09-19T06:14:17;5.05;;;1.85;;
39264;SDS011;42646;51.910;7.724;2023-09-19T06:16:48;5.30;;;2.03;;
39264;SDS011;42646;51.910;7.724;2023-09-19T06:19:17;8.40;;;2.20;;
39264;SDS011;42646;51.910;7.724;2023-09-19T06:21:53;7.45;;;2.00;;
39264;SDS011;42646;51.910;7.724;2023-09-19T06:24:21;7.35;;;2.33;;
39264;SDS011;42646;51.910;7.724;2023-09-19T06:27:14;6.07;;;1.88;;
39264;SDS011;42646;51.910;7.724;2023-09-19T06:29:43;6.80;;;2.20;;
39264;SDS011;42646;51.910;7.724;2023-09-19T06:32:14;6.75;;;2.10;;
39264;SDS011;42646;51.910;7.724;2023-09-19T06:34:42;7.25;;;2.30;;
39264;SDS011;42646;51.910;7.724;2023-09-19T06:37:12;5.72;;;1.90;;
39264;SDS011;42646;51.910;7.724;2023-09-19T06:39:40;7.70;;;2.38;;
39264;SDS011;42646;51.910;7.724;2023-09-19T06:42:08;8.02;;;2.45;;
39264;SDS011;42646;51.910;7.724;2023-09-19T06:44:37;8.40;;;2.38;;
39264;SDS011;42646;51.910;7.724;2023-09-19T06:47:06;5.88;;;2.17;;
39264;SDS011;42646;51.910;7.724;2023-09-19T06:49:35;9.82;;;2.03;;
39264;SDS011;42646;51.910;7.724;2023-09-19T06:52:04;6.75;;;2.25;;
39264;SDS011;42646;51.910;7.724;2023-09-19T06:54:32;7.22;;;3.13;;
39264;SDS011;42646;51.910;7.724;2023-09-19T06:57:02;8.95;;;2.78;;
39264;SDS011;42646;51.910;7.724;2023-09-19T06:59:30;8.15;;;2.50;;
39264;SDS011;42646;51.910;7.724;2023-09-19T07:01:59;7.47;;;2.13;;
39264;SDS011;42646;51.910;7.724;2023-09-19T07:04:27;7.93;;;2.38;;
39264;SDS011;42646;51.910;7.724;2023-09-19T07:06:57;5.78;;;2.20;;
39264;SDS011;42646;51.910;7.724;2023-09-19T07:09:24;7.95;;;2.83;;
39264;SDS011;42646;51.910;7.724;2023-09-19T07:11:54;7.18;;;2.13;;
39264;SDS011;42646;51.910;7.724;2023-09-19T07:14:22;5.53;;;2.20;;
39264;SDS011;42646;51.910;7.724;2023-09-19T07:16:50;8.15;;;2.35;;
39264;SDS011;42646;51.910;7.724;2023-09-19T07:19:18;6.80;;;2.15;;
39264;SDS011;42646;51.910;7.724;2023-09-19T07:21:46;7.88;;;2.20;;
39264;SDS011;42646;51.910;7.724;2023-09-19T07:24:19;7.05;;;2.28;;
39264;SDS011;42646;51.910;7.724;2023-09-19T07:26:49;6.30;;;2.25;;
39264;SDS011;42646;51.910;7.724;2023-09-19T07:29:17;7.03;;;2.20;;
39264;SDS011;42646;51.910;7.724;2023-09-19T07:31:45;6.38;;;2.42;;
39264;SDS011;42646;51.910;7.724;2023-09-19T07:34:14;7.72;;;2.17;;
39264;SDS011;42646;51.910;7.724;2023-09-19T07:36:41;6.65;;;1.90;;
39264;SDS011;42646;51.910;7.724;2023-09-19T07:39:10;6.22;;;2.00;;
39264;SDS011;42646;51.910;7.724;2023-09-19T07:41:50;5.75;;;2.03;;
39264;SDS011;42646;51.910;7.724;2023-09-19T07:44:18;7.22;;;2.38;;
39264;SDS011;42646;51.910;7.724;2023-09-19T07:46:46;6.20;;;2.10;;
39264;SDS011;42646;51.910;7.724;2023-09-19T07:49:17;9.82;;;2.15;;
39264;SDS011;42646;51.910;7.724;2023-09-19T07:51:47;6.97;;;2.00;;
39264;SDS011;42646;51.910;7.724;2023-09-19T07:54:15;7.53;;;2.05;;
39264;SDS011;42646;51.910;7.724;2023-09-19T07:56:43;7.32;;;2.20;;
39264;SDS011;42646;51.910;7.724;2023-09-19T07:59:14;6.72;;;2.13;;
39264;SDS011;42646;51.910;7.724;2023-09-19T08:01:42;9.18;;;2.30;;
39264;SDS011;42646;51.910;7.724;2023-09-19T08:04:12;7.40;;;2.50;;
39264;SDS011;42646;51.910;7.724;2023-09-19T08:06:40;7.47;;;2.30;;
39264;SDS011;42646;51.910;7.724;2023-09-19T08:09:08;7.82;;;2.33;;
39264;SDS011;42646;51.910;7.724;2023-09-19T08:11:37;7.68;;;2.13;;
39264;SDS011;42646;51.910;7.724;2023-09-19T08:14:06;9.65;;;2.58;;
39264;SDS011;42646;51.910;7.724;2023-09-19T08:16:37;8.85;;;3.17;;
39264;SDS011;42646;51.910;7.724;2023-09-19T08:19:05;8.55;;;2.20;;
39264;SDS011;42646;51.910;7.724;2023-09-19T08:21:33;9.82;;;2.70;;
39264;SDS011;42646;51.910;7.724;2023-09-19T08:24:01;9.48;;;2.33;;
39264;SDS011;42646;51.910;7.724;2023-09-19T08:26:31;13.10;;;2.55;;
39264;SDS011;42646;51.910;7.724;2023-09-19T08:28:59;8.27;;;2.50;;
39264;SDS011;42646;51.910;7.724;2023-09-19T08:31:32;8.95;;;2.55;;
39264;SDS011;42646;51.910;7.724;2023-09-19T08:34:05;6.22;;;2.10;;
39264;SDS011;42646;51.910;7.724;2023-09-19T08:36:32;8.98;;;2.50;;
39264;SDS011;42646;51.910;7.724;2023-09-19T08:39:01;8.23;;;2.90;;
39264;SDS011;42646;51.910;7.724;2023-09-19T08:41:29;7.20;;;2.17;;
39264;SDS011;42646;51.910;7.724;2023-09-19T08:43:58;10.88;;;2.25;;
39264;SDS011;42646;51.910;7.724;2023-09-19T08:46:29;8.38;;;2.30;;
39264;SDS011;42646;51.910;7.724;2023-09-19T08:49:05;5.95;;;2.05;;
39264;SDS011;42646;51.910;7.724;2023-09-19T08:51:44;7.93;;;2.55;;
39264;SDS011;42646;51.910;7.724;2023-09-19T08:54:18;6.25;;;2.25;;
39264;SDS011;42646;51.910;7.724;2023-09-19T08:57:15;8.57;;;2.63;;
39264;SDS011;42646;51.910;7.724;2023-09-19T08:59:48;8.05;;;2.75;;
39264;SDS011;42646;51.910;7.724;2023-09-19T09:02:17;8.70;;;2.40;;
39264;SDS011;42646;51.910;7.724;2023-09-19T09:04:48;10.25;;;2.63;;
39264;SDS011;42646;51.910;7.724;2023-09-19T09:07:17;7.05;;;2.60;;
39264;SDS011;42646;51.910;7.724;2023-09-19T09:09:51;10.30;;;2.55;;
39264;SDS011;42646;51.910;7.724;2023-09-19T09:12:19;8.77;;;2.60;;
39264;SDS011;42646;51.910;7.724;2023-09-19T09:14:51;7.90;;;2.50;;
39264;SDS011;42646;51.910;7.724;2023-09-19T09:17:19;7.07;;;2.60;;
39264;SDS011;42646;51.910;7.724;2023-09-19T09:19:49;8.07;;;2.67;;
39264;SDS011;42646;51.910;7.724;2023-09-19T09:22:18;8.23;;;2.67;;
39264;SDS011;42646;51.910;7.724;2023-09-19T09:24:51;7.32;;;2.88;;
39264;SDS011;42646;51.910;7.724;2023-09-19T09:27:20;9.40;;;3.33;;
39264;SDS011;42646;51.910;7.724;2023-09-19T09:29:50;8.27;;;3.13;;
39264;SDS011;42646;51.910;7.724;2023-09-19T09:32:22;7.30;;;2.70;;
39264;SDS011;42646;51.910;7.724;2023-09-19T09:34:54;8.95;;;2.80;;
39264;SDS011;42646;51.910;7.724;2023-09-19T09:37:28;9.63;;;3.53;;
39264;SDS011;42646;51.910;7.724;2023-09-19T09:39:58;8.77;;;3.03;;
39264;SDS011;42646;51.910;7.724;2023-09-19T09:42:45;8.80;;;2.90;;
39264;SDS011;42646;51.910;7.724;2023-09-19T09:45:14;10.77;;;2.80;;
39264;SDS011;42646;51.910;7.724;2023-09-19T09:47:44;11.10;;;3.00;;
39264;SDS011;42646;51.910;7.724;2023-09-19T09:50:26;8.70;;;2.63;;
39264;SDS011;42646;51.910;7.724;2023-09-19T09:53:19;13.75;;;3.00;;
39264;SDS011;42646;51.910;7.724;2023-09-19T09:55:57;9.73;;;2.75;;
39264;SDS011;42646;51.910;7.724;2023-09-19T09:58:27;7.43;;;2.42;;
39264;SDS011;42646;51.910;7.724;2023-09-19T10:00:56;7.25;;;2.47;;
39264;SDS011;42646;51.910;7.724;2023-09-19T10:03:33;7.22;;;2.35;;
39264;SDS011;42646;51.910;7.724;2023-09-19T10:06:09;6.65;;;2.63;;
39264;SDS011;42646;51.910;7.724;2023-09-19T10:08:59;10.30;;;2.70;;
39264;SDS011;42646;51.910;7.724;2023-09-19T10:11:41;9.60;;;2.55;;
39264;SDS011;42646;51.910;7.724;2023-09-19T10:14:11;8.75;;;2.33;;
39264;SDS011;42646;51.910;7.724;2023-09-19T10:16:40;7.00;;;2.30;;
39264;SDS011;42646;51.910;7.724;2023-09-19T10:19:20;7.55;;;2.53;;
39264;SDS011;42646;51.910;7.724;2023-09-19T10:21:54;7.85;;;2.30;;
39264;SDS011;42646;51.910;7.724;2023-09-19T10:24:24;10.23;;;2.55;;
39264;SDS011;42646;51.910;7.724;2023-09-19T10:26:54;7.00;;;2.42;;
39264;SDS011;42646;51.910;7.724;2023-09-19T10:29:24;8.18;;;2.30;;
39264;SDS011;42646;51.910;7.724;2023-09-19T10:31:54;7.22;;;2.60;;
39264;SDS011;42646;51.910;7.724;2023-09-19T10:34:25;6.30;;;2.43;;
39264;SDS011;42646;51.910;7.724;2023-09-19T10:36:59;10.07;;;2.97;;
39264;SDS011;42646;51.910;7.724;2023-09-19T10:39:32;8.65;;;2.45;;
39264;SDS011;42646;51.910;7.724;2023-09-19T10:42:02;9.48;;;2.60;;
39264;SDS011;42646;51.910;7.724;2023-09-19T10:44:33;8.10;;;2.40;;
39264;SDS011;42646;51.910;7.724;2023-09-19T10:47:01;6.13;;;2.00;;
39264;SDS011;42646;51.910;7.724;2023-09-19T10:49:32;7.95;;;2.05;;
39264;SDS011;42646;51.910;7.724;2023-09-19T10:52:04;7.63;;;2.30;;
39264;SDS011;42646;51.910;7.724;2023-09-19T10:54:37;5.40;;;2.13;;
39264;SDS011;42646;51.910;7.724;2023-09-19T10:57:12;9.93;;;2.75;;
39264;SDS011;42646;51.910;7.724;2023-09-19T11:00:00;7.82;;;2.20;;
39264;SDS011;42646;51.910;7.724;2023-09-19T11:03:16;7.80;;;2.45;;
39264;SDS011;42646;51.910;7.724;2023-09-19T11:06:00;10.45;;;2.88;;
39264;SDS011;42646;51.910;7.724;2023-09-19T11:08:52;8.48;;;2.30;;
39264;SDS011;42646;51.910;7.724;2023-09-19T11:11:40;9.40;;;2.70;;
39264;SDS011;42646;51.910;7.724;2023-09-19T11:20:19;7.53;;;2.70;;
39264;SDS011;42646;51.910;7.724;2023-09-19T11:23:18;8.70;;;2.67;;
39264;SDS011;42646;51.910;7.724;2023-09-19T11:25:52;10.80;;;2.70;;
39264;SDS011;42646;51.910;7.724;2023-09-19T11:28:28;8.85;;;2.60;;
39264;SDS011;42646;51.910;7.724;2023-09-19T11:31:00;7.65;;;2.72;;
39264;SDS011;42646;51.910;7.724;2023-09-19T11:40:37;7.40;;;2.45;;
39264;SDS011;42646;51.910;7.724;2023-09-19T11:46:02;6.88;;;2.40;;
39264;SDS011;42646;51.910;7.724;2023-09-19T11:48:40;9.35;;;2.70;;
39264;SDS011;42646;51.910;7.724;2023-09-19T11:51:14;6.32;;;2.40;;
39264;SDS011;42646;51.910;7.724;2023-09-19T11:53:46;8.50;;;2.50;;
39264;SDS011;42646;51.910;7.724;2023-09-19T11:56:15;9.30;;;2.30;;
39264;SDS011;42646;51.910;7.724;2023-09-19T11:58:46;6.53;;;2.22;;
39264;SDS011;42646;51.910;7.724;2023-09-19T12:01:24;9.18;;;2.47;;
39264;SDS011;42646;51.910;7.724;2023-09-19T12:04:21;6.60;;;2.13;;
39264;SDS011;42646;51.910;7.724;2023-09-19T12:07:06;5.88;;;2.25;;
39264;SDS011;42646;51.910;7.724;2023-09-19T12:09:38;6.30;;;2.00;;
39264;SDS011;42646;51.910;7.724;2023-09-19T12:12:10;6.85;;;2.10;;
39264;SDS011;42646;51.910;7.724;2023-09-19T12:14:43;7.38;;;2.10;;
39264;SDS011;42646;51.910;7.724;2023-09-19T12:17:15;7.68;;;2.10;;
39264;SDS011;42646;51.910;7.724;2023-09-19T12:19:49;6.47;;;2.20;;
39264;SDS011;42646;51.910;7.724;2023-09-19T12:22:19;8.43;;;2.35;;
39264;SDS011;42646;51.910;7.724;2023-09-19T12:24:47;7.03;;;2.10;;
39264;SDS011;42646;51.910;7.724;2023-09-19T12:27:17;4.95;;;1.90;;
39264;SDS011;42646;51.910;7.724;2023-09-19T12:29:47;6.85;;;2.35;;
39264;SDS011;42646;51.910;7.724;2023-09-19T12:32:16;6.90;;;2.20;;
39264;SDS011;42646;51.910;7.724;2023-09-19T12:34:51;6.75;;;2.13;;
39264;SDS011;42646;51.910;7.724;2023-09-19T12:37:21;5.45;;;1.80;;
39264;SDS011;42646;51.910;7.724;2023-09-19T12:39:53;5.47;;;1.95;;
39264;SDS011;42646;51.910;7.724;2023-09-19T12:42:42;5.32;;;1.90;;
39264;SDS011;42646;51.910;7.724;2023-09-19T12:45:13;7.03;;;1.80;;
39264;SDS011;42646;51.910;7.724;2023-09-19T12:53:27;6.07;;;1.80;;
39264;SDS011;42646;51.910;7.724;2023-09-19T12:55:59;6.90;;;2.08;;
39264;SDS011;42646;51.910;7.724;2023-09-19T13:01:11;10.18;;;2.25;;
39264;SDS011;42646;51.910;7.724;2023-09-19T13:03:43;8.60;;;2.55;;
39264;SDS011;42646;51.910;7.724;2023-09-19T13:06:12;10.60;;;2.00;;
39264;SDS011;42646;51.910;7.724;2023-09-19T13:08:43;4.75;;;1.70;;
39264;SDS011;42646;51.910;7.724;2023-09-19T13:11:16;7.65;;;2.05;;
39264;SDS011;42646;51.910;7.724;2023-09-19T13:16:57;7.32;;;2.00;;
39264;SDS011;42646;51.910;7.724;2023-09-19T13:19:37;6.05;;;1.70;;
39264;SDS011;42646;51.910;7.724;2023-09-19T13:25:14;8.00;;;1.98;;
39264;SDS011;42646;51.910;7.724;2023-09-19T13:27:44;6.68;;;2.13;;
39264;SDS011;42646;51.910;7.724;2023-09-19T13:30:14;7.07;;;2.05;;
39264;SDS011;42646;51.910;7.724;2023-09-19T13:32:44;7.18;;;2.10;;
39264;SDS011;42646;51.910;7.724;2023-09-19T13:35:14;5.50;;;1.95;;
39264;SDS011;42646;51.910;7.724;2023-09-19T13:37:42;7.35;;;2.10;;
39264;SDS011;42646;51.910;7.724;2023-09-19T13:40:13;5.25;;;1.85;;
39264;SDS011;42646;51.910;7.724;2023-09-19T13:42:42;7.38;;;2.13;;
39264;SDS011;42646;51.910;7.724;2023-09-19T13:45:35;5.85;;;2.08;;
39264;SDS011;42646;51.910;7.724;2023-09-19T13:48:06;8.57;;;2.63;;
39264;SDS011;42646;51.910;7.724;2023-09-19T13:50:34;6.55;;;1.80;;
39264;SDS011;42646;51.910;7.724;2023-09-19T13:53:08;5.95;;;1.85;;
39264;SDS011;42646;51.910;7.724;2023-09-19T13:55:36;6.57;;;2.10;;
39264;SDS011;42646;51.910;7.724;2023-09-19T14:00:37;7.80;;;2.15;;
39264;SDS011;42646;51.910;7.724;2023-09-19T14:03:06;4.28;;;1.83;;
39264;SDS011;42646;51.910;7.724;2023-09-19T14:05:35;6.32;;;1.85;;
39264;SDS011;42646;51.910;7.724;2023-09-19T14:08:08;7.05;;;2.22;;
39264;SDS011;42646;51.910;7.724;2023-09-19T14:10:36;4.78;;;1.65;;
39264;SDS011;42646;51.910;7.724;2023-09-19T14:13:04;4.90;;;1.58;;
39264;SDS011;42646;51.910;7.724;2023-09-19T14:15:32;7.63;;;2.17;;
39264;SDS011;42646;51.910;7.724;2023-09-19T14:18:07;5.35;;;1.60;;
39264;SDS011;42646;51.910;7.724;2023-09-19T14:20:37;4.45;;;1.80;;
39264;SDS011;42646;51.910;7.724;2023-09-19T14:23:05;5.47;;;2.10;;
39264;SDS011;42646;51.910;7.724;2023-09-19T14:25:34;7.03;;;1.98;;
39264;SDS011;42646;51.910;7.724;2023-09-19T14:28:02;4.22;;;1.83;;
39264;SDS011;42646;51.910;7.724;2023-09-19T14:30:30;5.15;;;1.73;;
39264;SDS011;42646;51.910;7.724;2023-09-19T14:32:59;5.22;;;1.63;;
39264;SDS011;42646;51.910;7.724;2023-09-19T14:35:28;4.53;;;1.63;;
39264;SDS011;42646;51.910;7.724;2023-09-19T14:37:56;5.30;;;1.60;;
39264;SDS011;42646;51.910;7.724;2023-09-19T14:40:24;3.97;;;1.58;;
39264;SDS011;42646;51.910;7.724;2023-09-19T14:42:53;5.43;;;1.83;;
39264;SDS011;42646;51.910;7.724;2023-09-19T14:45:21;4.85;;;1.45;;
39264;SDS011;42646;51.910;7.724;2023-09-19T14:47:51;4.40;;;1.58;;
39264;SDS011;42646;51.910;7.724;2023-09-19T14:50:21;6.47;;;1.52;;
39264;SDS011;42646;51.910;7.724;2023-09-19T14:52:52;6.13;;;1.50;;
39264;SDS011;42646;51.910;7.724;2023-09-19T14:55:20;6.43;;;1.80;;
39264;SDS011;42646;51.910;7.724;2023-09-19T14:57:49;4.95;;;1.60;;
39264;SDS011;42646;51.910;7.724;2023-09-19T15:00:19;5.35;;;1.40;;
39264;SDS011;42646;51.910;7.724;2023-09-19T15:02:49;4.45;;;1.58;;
39264;SDS011;42646;51.910;7.724;2023-09-19T15:05:19;4.97;;;1.50;;
39264;SDS011;42646;51.910;7.724;2023-09-19T15:07:47;3.92;;;1.50;;
39264;SDS011;42646;51.910;7.724;2023-09-19T15:10:16;4.55;;;1.50;;
39264;SDS011;42646;51.910;7.724;2023-09-19T15:12:44;6.90;;;1.58;;
39264;SDS011;42646;51.910;7.724;2023-09-19T15:15:12;4.22;;;1.55;;
39264;SDS011;42646;51.910;7.724;2023-09-19T15:17:40;4.25;;;1.40;;
39264;SDS011;42646;51.910;7.724;2023-09-19T15:20:08;3.45;;;1.30;;
39264;SDS011;42646;51.910;7.724;2023-09-19T15:25:08;4.15;;;1.52;;
39264;SDS011;42646;51.910;7.724;2023-09-19T15:27:41;5.03;;;1.33;;
39264;SDS011;42646;51.910;7.724;2023-09-19T15:30:11;4.40;;;1.10;;
39264;SDS011;42646;51.910;7.724;2023-09-19T15:32:41;4.13;;;1.48;;
39264;SDS011;42646;51.910;7.724;2023-09-19T15:35:09;6.03;;;1.30;;
39264;SDS011;42646;51.910;7.724;2023-09-19T15:37:40;3.60;;;1.30;;
39264;SDS011;42646;51.910;7.724;2023-09-19T15:40:09;3.35;;;1.35;;
39264;SDS011;42646;51.910;7.724;2023-09-19T15:42:43;3.85;;;1.42;;
39264;SDS011;42646;51.910;7.724;2023-09-19T15:45:11;4.78;;;1.88;;
39264;SDS011;42646;51.910;7.724;2023-09-19T15:47:41;3.75;;;1.50;;
39264;SDS011;42646;51.910;7.724;2023-09-19T15:50:09;4.55;;;1.30;;
39264;SDS011;42646;51.910;7.724;2023-09-19T15:52:40;5.60;;;1.23;;
39264;SDS011;42646;51.910;7.724;2023-09-19T15:55:08;2.78;;;1.20;;
39264;SDS011;42646;51.910;7.724;2023-09-19T15:57:39;4.43;;;1.15;;